Time;durP1;ratioP1;P1;durP2;ratioP2;P2;SDS_P1;SDS_P2;PMS_P1;PMS_P2;Temp;Humidity;BMP_temperature;BMP_pressure;BME280_temperature;BME280_humidity;BME280_pressure;Samples;Min_cycle;Max_cycle;Signal;HPM_P1;HPM_P2
2023/03/07 00:01:00;;;;;;;38.73;19.43;;;3.00;99.90;;;;;;5024805;28;20144;-79
2023/03/07 00:03:26;;;;;;;39.37;18.53;;;2.90;99.90;;;;;;5025441;28;20141;-79
2023/03/07 00:06:07;;;;;;;32.20;17.20;;;2.90;99.90;;;;;;5027121;28;20053;-79
2023/03/07 00:08:33;;;;;;;32.30;15.80;;;3.00;99.90;;;;;;5018475;28;20057;-78
2023/03/07 00:11:06;;;;;;;32.80;14.97;;;3.00;99.90;;;;;;5029540;28;20076;-79
2023/03/07 00:13:33;;;;;;;25.77;13.03;;;3.70;99.90;;;;;;5028622;28;20212;-79
2023/03/07 00:16:04;;;;;;;20.63;10.27;;;3.20;99.90;;;;;;5024979;28;20407;-79
2023/03/07 00:18:30;;;;;;;20.20;8.83;;;3.20;99.90;;;;;;4994240;28;20048;-79
2023/03/07 00:20:57;;;;;;;21.07;7.93;;;3.00;99.90;;;;;;5025409;28;20500;-79
2023/03/07 00:23:23;;;;;;;15.33;6.73;;;3.10;99.90;;;;;;5024444;28;20492;-78
2023/03/07 00:26:01;;;;;;;20.90;6.23;;;3.10;99.90;;;;;;5039908;28;20053;-79
2023/03/07 00:28:27;;;;;;;21.73;4.83;;;3.00;99.90;;;;;;4995988;28;20045;-78
2023/03/07 00:30:54;;;;;;;18.13;3.97;;;3.20;99.90;;;;;;5029711;28;20057;-78
2023/03/07 00:33:19;;;;;;;18.33;4.20;;;3.10;99.90;;;;;;5029162;28;20056;-79
2023/03/07 00:35:56;;;;;;;12.57;3.87;;;3.10;99.90;;;;;;5029457;28;20049;-79
2023/03/07 00:38:22;;;;;;;20.07;3.83;;;3.10;99.90;;;;;;5014463;28;20095;-79
2023/03/07 00:40:57;;;;;;;16.80;3.40;;;3.50;99.90;;;;;;5012251;28;20038;-79
2023/03/07 00:43:23;;;;;;;16.87;3.97;;;3.20;99.90;;;;;;5047792;28;20045;-79
2023/03/07 00:45:48;;;;;;;12.03;2.90;;;3.10;99.90;;;;;;5050988;28;20128;-79
2023/03/07 00:48:14;;;;;;;18.63;3.50;;;3.10;99.90;;;;;;5024878;28;20132;-79
2023/03/07 00:50:40;;;;;;;16.97;3.67;;;3.10;99.90;;;;;;5033420;28;20045;-79
2023/03/07 00:53:07;;;;;;;22.40;4.23;;;3.10;99.90;;;;;;5031072;28;20538;-79
2023/03/07 00:55:33;;;;;;;16.97;2.60;;;3.10;99.90;;;;;;5031951;28;20522;-78
2023/03/07 00:57:59;;;;;;;19.57;3.13;;;3.20;99.90;;;;;;5014760;28;20050;-79
2023/03/07 01:00:24;;;;;;;19.03;3.10;;;3.10;99.90;;;;;;5032446;28;20051;-79
2023/03/07 01:02:50;;;;;;;18.70;3.33;;;3.10;99.90;;;;;;5030680;28;20079;-79
2023/03/07 01:05:16;;;;;;;20.27;3.43;;;3.10;99.90;;;;;;5032115;28;20052;-78
2023/03/07 01:07:42;;;;;;;22.33;3.03;;;3.10;99.90;;;;;;5015448;28;20341;-78
2023/03/07 01:10:08;;;;;;;21.50;3.03;;;3.60;99.90;;;;;;5031145;28;20080;-79
2023/03/07 01:12:34;;;;;;;17.33;2.80;;;3.10;99.90;;;;;;5029052;28;20080;-79
2023/03/07 01:14:59;;;;;;;26.50;3.23;;;3.20;99.90;;;;;;5031586;28;20091;-79
2023/03/07 01:17:25;;;;;;;22.03;3.33;;;3.20;99.90;;;;;;5014847;28;20077;-80
2023/03/07 01:19:51;;;;;;;24.77;4.10;;;3.20;99.90;;;;;;5030564;28;20049;-78
2023/03/07 01:22:16;;;;;;;21.73;3.57;;;3.20;99.90;;;;;;5029535;28;20042;-78
2023/03/07 01:24:42;;;;;;;21.77;2.90;;;3.20;99.90;;;;;;5040137;28;20052;-79
2023/03/07 01:27:07;;;;;;;15.53;2.73;;;3.20;99.90;;;;;;5015345;28;20132;-78
2023/03/07 01:29:33;;;;;;;14.97;2.73;;;3.20;99.90;;;;;;5031036;28;20076;-79
2023/03/07 01:31:59;;;;;;;14.60;2.73;;;3.20;99.90;;;;;;5031416;28;20534;-78
2023/03/07 01:34:24;;;;;;;16.93;2.93;;;3.20;99.90;;;;;;5029168;28;20072;-79
2023/03/07 01:36:50;;;;;;;19.30;2.63;;;3.30;99.90;;;;;;5015718;28;20093;-78
2023/03/07 01:39:16;;;;;;;18.53;2.70;;;3.30;99.90;;;;;;5023467;28;20428;-79
2023/03/07 01:41:43;;;;;;;15.20;2.60;;;3.10;99.90;;;;;;5037379;28;20480;-79
2023/03/07 01:44:21;;;;;;;15.80;2.50;;;3.10;99.90;;;;;;5048596;28;20069;-79
2023/03/07 01:46:54;;;;;;;11.60;2.30;;;3.30;99.90;;;;;;5030365;28;20037;-78
2023/03/07 01:49:37;;;;;;;15.10;2.23;;;3.00;99.90;;;;;;5029834;28;20121;-79
2023/03/07 01:52:08;;;;;;;14.40;2.53;;;2.90;99.90;;;;;;5028932;28;20140;-77
2023/03/07 01:54:40;;;;;;;18.30;2.33;;;2.80;99.90;;;;;;5030204;28;20447;-79
2023/03/07 01:57:06;;;;;;;16.57;2.67;;;2.90;99.90;;;;;;5015090;28;20053;-78
2023/03/07 01:59:35;;;;;;;14.50;2.27;;;2.80;99.90;;;;;;5029722;28;20341;-78
2023/03/07 02:02:15;;;;;;;18.17;2.73;;;2.90;99.90;;;;;;5038206;28;20046;-78
2023/03/07 02:05:02;;;;;;;12.27;2.10;;;2.80;99.90;;;;;;5010562;28;20477;-79
2023/03/07 02:07:34;;;;;;;14.60;2.33;;;2.70;99.90;;;;;;4993799;28;20516;-79
2023/03/07 02:10:00;;;;;;;18.70;2.33;;;2.90;99.90;;;;;;5013872;28;20049;-78
2023/03/07 02:12:26;;;;;;;20.37;3.10;;;2.60;99.90;;;;;;5029430;28;20084;-78
2023/03/07 02:14:52;;;;;;;12.87;2.57;;;2.80;99.90;;;;;;5029589;28;20053;-79
2023/03/07 02:17:18;;;;;;;17.87;2.23;;;2.70;99.90;;;;;;5013570;28;20073;-78
2023/03/07 02:19:56;;;;;;;21.00;2.83;;;2.80;99.90;;;;;;5030025;28;20049;-79
2023/03/07 02:22:22;;;;;;;15.03;2.37;;;3.00;99.90;;;;;;5029340;28;20129;-78
2023/03/07 02:25:02;;;;;;;14.90;2.63;;;2.80;99.90;;;;;;5039179;28;20080;-77
2023/03/07 02:27:30;;;;;;;15.03;2.07;;;2.80;99.90;;;;;;5013649;28;20049;-78
2023/03/07 02:29:56;;;;;;;20.13;2.50;;;2.70;99.90;;;;;;5028984;28;20140;-78
2023/03/07 02:32:22;;;;;;;18.77;2.97;;;2.90;99.90;;;;;;5027538;28;20168;-78
2023/03/07 02:34:48;;;;;;;14.90;2.57;;;2.70;99.90;;;;;;5029240;28;20076;-77
2023/03/07 02:37:32;;;;;;;13.33;1.83;;;2.70;99.90;;;;;;5014568;28;20049;-77
2023/03/07 02:40:04;;;;;;;11.63;2.10;;;2.60;99.90;;;;;;5017849;28;20049;-78
2023/03/07 02:42:34;;;;;;;14.23;2.43;;;2.60;99.90;;;;;;5031302;28;20047;-78
2023/03/07 02:45:03;;;;;;;15.10;2.40;;;2.60;99.90;;;;;;5049708;28;20088;-78
2023/03/07 02:47:29;;;;;;;24.17;2.50;;;2.60;99.90;;;;;;5023752;28;20065;-78
2023/03/07 02:49:55;;;;;;;12.70;2.33;;;2.70;99.90;;;;;;5031611;28;20075;-79
2023/03/07 02:52:21;;;;;;;17.77;2.60;;;2.70;99.90;;;;;;5028219;28;20049;-78
2023/03/07 02:54:47;;;;;;;13.17;2.37;;;2.70;99.90;;;;;;5028296;28;20053;-78
2023/03/07 02:57:14;;;;;;;14.47;2.20;;;2.80;99.90;;;;;;5013499;28;20049;-79
2023/03/07 02:59:39;;;;;;;19.10;2.93;;;2.70;99.90;;;;;;5028051;28;20099;-78
2023/03/07 03:02:05;;;;;;;12.57;1.87;;;2.70;99.90;;;;;;5028160;28;20041;-78
2023/03/07 03:04:31;;;;;;;13.97;2.10;;;3.30;99.90;;;;;;5028276;28;20103;-78
2023/03/07 03:06:56;;;;;;;17.10;2.40;;;2.70;99.90;;;;;;5014506;28;20110;-79
2023/03/07 03:09:22;;;;;;;10.37;2.13;;;2.70;99.90;;;;;;5027848;28;20046;-78
2023/03/07 03:11:48;;;;;;;11.77;2.03;;;2.60;99.90;;;;;;5029344;28;20124;-77
2023/03/07 03:14:14;;;;;;;15.63;2.13;;;2.70;99.90;;;;;;5028372;28;20058;-78
2023/03/07 03:16:40;;;;;;;12.67;2.03;;;2.60;99.90;;;;;;5015041;28;20704;-79
2023/03/07 03:19:06;;;;;;;13.33;1.87;;;2.60;99.90;;;;;;5027070;28;20132;-78
2023/03/07 03:21:31;;;;;;;11.47;2.20;;;2.60;99.90;;;;;;5028909;28;20180;-79
2023/03/07 03:23:57;;;;;;;12.23;2.17;;;2.60;99.90;;;;;;5028260;28;20053;-78
2023/03/07 03:26:23;;;;;;;12.33;2.27;;;2.50;99.90;;;;;;5030995;28;20126;-78
2023/03/07 03:28:49;;;;;;;16.30;2.07;;;2.60;99.90;;;;;;5045372;28;20071;-78
2023/03/07 03:31:15;;;;;;;11.50;1.83;;;2.70;99.90;;;;;;5049186;28;20398;-78
2023/03/07 03:33:43;;;;;;;7.10;2.27;;;2.90;99.90;;;;;;5047875;28;20057;-78
2023/03/07 03:36:15;;;;;;;13.43;2.13;;;2.50;99.90;;;;;;5016538;28;20072;-79
2023/03/07 03:38:41;;;;;;;11.07;1.70;;;2.60;99.90;;;;;;5022670;28;20056;-78
2023/03/07 03:41:11;;;;;;;9.63;1.67;;;2.80;99.90;;;;;;5010403;28;20057;-79
2023/03/07 03:43:36;;;;;;;14.67;2.53;;;2.50;99.90;;;;;;5050604;28;20132;-78
2023/03/07 03:46:02;;;;;;;14.43;1.63;;;2.40;99.90;;;;;;5053475;28;20163;-78
2023/03/07 03:48:28;;;;;;;11.20;1.93;;;2.40;99.90;;;;;;5017352;28;20503;-78
2023/03/07 03:51:04;;;;;;;10.13;2.13;;;2.40;99.90;;;;;;5034824;28;20053;-78
2023/03/07 03:53:32;;;;;;;14.70;1.97;;;2.30;99.90;;;;;;5032565;28;20045;-78
2023/03/07 03:56:28;;;;;;;15.43;1.70;;;2.50;99.90;;;;;;5031822;28;20084;-78
2023/03/07 03:58:55;;;;;;;16.80;2.03;;;2.30;99.90;;;;;;5029947;28;20053;-78
2023/03/07 04:01:24;;;;;;;15.80;1.90;;;2.40;99.90;;;;;;5032683;28;20128;-78
2023/03/07 04:03:51;;;;;;;16.10;2.37;;;2.40;99.90;;;;;;5032021;28;20049;-78
2023/03/07 04:06:20;;;;;;;15.70;1.80;;;2.50;99.90;;;;;;5022041;28;20488;-79
2023/03/07 04:08:46;;;;;;;9.17;1.67;;;2.30;99.90;;;;;;5028388;28;20491;-79
2023/03/07 04:11:12;;;;;;;15.63;2.00;;;2.30;99.90;;;;;;5032401;28;20505;-79
2023/03/07 04:13:38;;;;;;;12.50;2.13;;;2.80;99.90;;;;;;5031071;28;20099;-78
2023/03/07 04:16:04;;;;;;;18.83;2.30;;;2.20;99.90;;;;;;5032881;28;20045;-78
2023/03/07 04:18:30;;;;;;;10.93;1.90;;;2.50;99.90;;;;;;5018881;28;20049;-79
2023/03/07 04:20:57;;;;;;;12.13;2.10;;;2.20;99.90;;;;;;5032452;28;20056;-78
2023/03/07 04:23:23;;;;;;;16.33;2.27;;;2.20;99.90;;;;;;5031170;28;20115;-78
2023/03/07 04:25:52;;;;;;;19.07;2.53;;;2.20;99.90;;;;;;5041333;28;20100;-78
2023/03/07 04:28:18;;;;;;;15.83;2.10;;;2.30;99.90;;;;;;5036132;28;20041;-78
2023/03/07 04:30:44;;;;;;;16.40;2.60;;;2.50;99.90;;;;;;5052722;28;20144;-78
2023/03/07 04:33:11;;;;;;;11.83;2.47;;;2.10;99.90;;;;;;5051376;28;20072;-78
2023/03/07 04:35:38;;;;;;;11.57;2.20;;;2.10;99.90;;;;;;5047365;28;20055;-78
2023/03/07 04:38:04;;;;;;;15.03;2.30;;;2.40;99.90;;;;;;5016284;28;20041;-78
2023/03/07 04:40:30;;;;;;;16.20;2.50;;;2.80;99.90;;;;;;5014875;28;20141;-78
2023/03/07 04:42:56;;;;;;;11.87;1.90;;;2.30;99.90;;;;;;5042149;28;20083;-78
2023/03/07 04:45:22;;;;;;;13.33;2.50;;;2.30;99.90;;;;;;5051079;28;20088;-78
2023/03/07 04:47:47;;;;;;;17.97;2.93;;;2.40;99.90;;;;;;5022402;28;20060;-78
2023/03/07 04:50:15;;;;;;;13.83;2.57;;;2.80;99.90;;;;;;5032838;28;20046;-78
2023/03/07 04:52:40;;;;;;;12.37;2.40;;;2.30;99.90;;;;;;5031267;28;20046;-78
2023/03/07 04:55:06;;;;;;;16.30;2.17;;;2.20;99.90;;;;;;5031139;28;20492;-78
2023/03/07 04:57:32;;;;;;;13.70;2.40;;;2.30;99.90;;;;;;5014879;28;20049;-78
2023/03/07 04:59:58;;;;;;;13.90;1.90;;;2.70;99.90;;;;;;5032253;28;20377;-78
2023/03/07 05:02:23;;;;;;;12.73;2.47;;;2.40;99.90;;;;;;5030328;28;20056;-77
2023/03/07 05:04:49;;;;;;;14.87;2.27;;;2.40;99.90;;;;;;5030390;28;20152;-79
2023/03/07 05:07:15;;;;;;;14.67;2.17;;;2.90;99.90;;;;;;5015649;28;20085;-78
2023/03/07 05:09:40;;;;;;;17.50;2.77;;;2.60;99.90;;;;;;5030205;28;20049;-78
2023/03/07 05:12:06;;;;;;;20.20;2.77;;;2.60;99.90;;;;;;5028771;28;20111;-78
2023/03/07 05:14:32;;;;;;;11.33;2.17;;;2.60;99.90;;;;;;5028417;28;20321;-77
2023/03/07 05:16:58;;;;;;;11.53;2.33;;;2.60;99.90;;;;;;5014930;28;20046;-78
2023/03/07 05:19:23;;;;;;;11.17;2.13;;;2.50;99.90;;;;;;5029999;28;20124;-78
2023/03/07 05:21:49;;;;;;;14.70;2.07;;;2.60;99.90;;;;;;5030867;28;20038;-78
2023/03/07 05:24:15;;;;;;;13.10;1.90;;;2.50;99.90;;;;;;5038150;28;20041;-78
2023/03/07 05:26:41;;;;;;;12.00;1.97;;;2.60;99.90;;;;;;5036061;28;20495;-79
2023/03/07 05:29:06;;;;;;;11.17;2.07;;;2.50;99.90;;;;;;5049450;28;20497;-78
2023/03/07 05:31:32;;;;;;;14.13;2.50;;;2.40;99.90;;;;;;5050086;28;20434;-78
2023/03/07 05:33:58;;;;;;;8.63;1.70;;;2.30;99.90;;;;;;5050509;28;20049;-78
2023/03/07 05:36:23;;;;;;;15.07;1.87;;;2.30;99.90;;;;;;5029526;28;20535;-78
2023/03/07 05:38:52;;;;;;;9.43;1.87;;;2.20;99.90;;;;;;5024667;28;20065;-78
2023/03/07 05:41:18;;;;;;;13.40;1.80;;;2.20;99.90;;;;;;5013940;28;20470;-78
2023/03/07 05:43:44;;;;;;;13.23;1.93;;;2.30;99.90;;;;;;5050139;28;20501;-78
2023/03/07 05:46:09;;;;;;;13.70;2.00;;;2.20;99.90;;;;;;5043406;28;20072;-79
2023/03/07 05:48:35;;;;;;;16.23;1.87;;;2.50;99.90;;;;;;5023157;28;20045;-78
2023/03/07 05:51:01;;;;;;;13.83;1.90;;;2.80;99.90;;;;;;5031478;28;20369;-78
2023/03/07 05:53:26;;;;;;;8.80;1.80;;;2.20;99.90;;;;;;5021238;28;20146;-79
2023/03/07 05:55:52;;;;;;;12.07;1.97;;;2.20;99.90;;;;;;5018176;28;20663;-79
2023/03/07 05:58:18;;;;;;;9.20;1.77;;;2.20;99.90;;;;;;5009279;28;20160;-78
2023/03/07 06:00:43;;;;;;;9.47;1.53;;;2.30;99.90;;;;;;5028091;28;20064;-78
2023/03/07 06:03:10;;;;;;;14.40;1.90;;;2.30;99.90;;;;;;5029927;28;20045;-78
2023/03/07 06:05:36;;;;;;;9.53;1.60;;;2.20;99.90;;;;;;5029302;28;20506;-78
2023/03/07 06:08:02;;;;;;;5.60;1.20;;;2.20;99.90;;;;;;5011364;28;20053;-79
2023/03/07 06:10:28;;;;;;;6.73;1.10;;;2.20;99.90;;;;;;5028233;28;20436;-78
2023/03/07 06:12:55;;;;;;;14.03;1.67;;;2.10;99.90;;;;;;5022921;28;20148;-78
2023/03/07 06:15:21;;;;;;;7.30;0.93;;;2.10;99.90;;;;;;5034733;28;20435;-78
2023/03/07 06:17:47;;;;;;;8.47;1.40;;;2.10;99.90;;;;;;5012165;28;20408;-79
2023/03/07 06:20:15;;;;;;;8.93;1.20;;;2.90;99.90;;;;;;5030823;28;20059;-78
2023/03/07 06:22:41;;;;;;;10.13;1.30;;;2.00;99.90;;;;;;5029000;28;20496;-78
2023/03/07 06:25:08;;;;;;;8.13;1.63;;;2.10;99.90;;;;;;5044563;28;20076;-78
2023/03/07 06:27:35;;;;;;;11.17;1.40;;;2.10;99.90;;;;;;5033472;28;20387;-78
2023/03/07 06:30:01;;;;;;;13.13;1.63;;;1.90;99.90;;;;;;5050113;28;20065;-78
2023/03/07 06:32:27;;;;;;;13.10;1.70;;;2.10;99.90;;;;;;5048670;28;20057;-78
2023/03/07 06:34:52;;;;;;;8.50;1.60;;;2.10;99.90;;;;;;5040929;28;20055;-78
2023/03/07 06:37:18;;;;;;;10.70;1.63;;;2.10;99.90;;;;;;5013897;28;20081;-79
2023/03/07 06:39:44;;;;;;;7.80;1.40;;;2.40;99.90;;;;;;5019643;28;20067;-78
2023/03/07 06:42:09;;;;;;;12.53;1.77;;;2.10;99.90;;;;;;5009511;28;20066;-78
2023/03/07 06:44:35;;;;;;;7.47;1.00;;;2.10;99.90;;;;;;5015269;28;20058;-79
2023/03/07 06:47:01;;;;;;;8.97;1.17;;;2.60;99.90;;;;;;5000433;28;20045;-79
2023/03/07 06:49:26;;;;;;;13.57;1.27;;;1.80;99.90;;;;;;5016844;28;20049;-78
2023/03/07 06:51:52;;;;;;;13.70;1.40;;;2.10;99.90;;;;;;5024108;28;20063;-79
2023/03/07 06:54:18;;;;;;;10.77;1.50;;;2.10;99.90;;;;;;5022329;28;20645;-78
2023/03/07 06:56:43;;;;;;;12.47;1.63;;;2.10;99.90;;;;;;5007880;28;20049;-79
2023/03/07 06:59:10;;;;;;;6.57;1.10;;;2.10;99.90;;;;;;5009458;28;20417;-78
2023/03/07 07:01:36;;;;;;;6.43;1.00;;;2.20;99.90;;;;;;5010106;28;20053;-79
2023/03/07 07:04:02;;;;;;;6.70;1.23;;;2.20;99.90;;;;;;5005873;28;20049;-79
2023/03/07 07:06:28;;;;;;;7.13;1.40;;;2.10;99.90;;;;;;4997152;28;20420;-77
2023/03/07 07:08:55;;;;;;;10.23;1.13;;;2.10;99.90;;;;;;5000919;28;20053;-79
2023/03/07 07:11:21;;;;;;;8.20;1.33;;;2.10;99.90;;;;;;5019448;28;20041;-78
2023/03/07 07:13:47;;;;;;;11.10;1.33;;;2.10;99.90;;;;;;5025156;28;20064;-78
2023/03/07 07:16:13;;;;;;;4.67;0.83;;;2.10;99.90;;;;;;5018838;28;20403;-79
2023/03/07 07:18:38;;;;;;;5.63;0.80;;;2.10;99.90;;;;;;5020068;28;20199;-78
2023/03/07 07:21:04;;;;;;;5.63;0.97;;;2.10;99.90;;;;;;5030179;28;20103;-77
2023/03/07 07:23:30;;;;;;;9.20;0.77;;;2.10;99.90;;;;;;5026896;28;20611;-79
2023/03/07 07:25:56;;;;;;;10.10;1.10;;;2.30;99.90;;;;;;5027117;28;20076;-78
2023/03/07 07:28:22;;;;;;;6.47;1.13;;;2.40;99.90;;;;;;5012232;28;20041;-78
2023/03/07 07:30:47;;;;;;;6.43;1.00;;;2.10;99.90;;;;;;5031055;28;20045;-78
2023/03/07 07:33:13;;;;;;;9.10;1.03;;;2.20;99.90;;;;;;5030428;28;20099;-78
2023/03/07 07:35:42;;;;;;;4.57;1.20;;;2.10;99.90;;;;;;5030830;28;20076;-78
2023/03/07 07:38:08;;;;;;;7.47;1.30;;;2.30;99.90;;;;;;5012115;28;20447;-78
2023/03/07 07:40:33;;;;;;;9.37;1.47;;;2.10;99.90;;;;;;5029214;28;20045;-78
2023/03/07 07:42:59;;;;;;;6.90;1.23;;;2.10;99.90;;;;;;5032022;28;20459;-78
2023/03/07 07:45:25;;;;;;;8.07;1.30;;;2.10;99.90;;;;;;5031335;28;20057;-78
2023/03/07 07:47:51;;;;;;;9.07;1.67;;;2.10;99.90;;;;;;5015825;28;20151;-78
2023/03/07 07:50:18;;;;;;;7.80;1.57;;;2.50;99.90;;;;;;5031406;28;20124;-78
2023/03/07 07:52:45;;;;;;;9.90;1.77;;;2.30;99.90;;;;;;5031152;28;20132;-78
2023/03/07 07:55:13;;;;;;;8.57;1.30;;;2.20;99.90;;;;;;5032769;28;20125;-78
2023/03/07 07:57:39;;;;;;;10.37;1.73;;;2.20;99.90;;;;;;5012441;28;20457;-78
2023/03/07 08:00:06;;;;;;;9.67;1.27;;;2.20;99.90;;;;;;5031048;28;20396;-78
2023/03/07 08:02:34;;;;;;;10.03;1.60;;;2.30;99.90;;;;;;5030606;28;20064;-78
2023/03/07 08:04:59;;;;;;;8.07;1.70;;;2.40;99.90;;;;;;5033529;28;20045;-78
2023/03/07 08:07:25;;;;;;;8.20;1.53;;;2.50;99.90;;;;;;5015967;28;20062;-78
2023/03/07 08:09:51;;;;;;;7.47;1.63;;;2.50;99.90;;;;;;5032415;28;20045;-78
2023/03/07 08:12:16;;;;;;;13.07;1.67;;;3.00;99.90;;;;;;5030622;28;20037;-79
2023/03/07 08:14:42;;;;;;;8.67;1.30;;;2.60;99.90;;;;;;5032027;28;20056;-78
2023/03/07 08:17:08;;;;;;;12.67;1.70;;;2.60;99.90;;;;;;5013923;28;20068;-77
2023/03/07 08:19:34;;;;;;;10.03;1.60;;;2.70;99.90;;;;;;5032146;28;20037;-78
2023/03/07 08:22:00;;;;;;;11.70;1.70;;;3.00;99.90;;;;;;5031216;28;20472;-78
2023/03/07 08:24:26;;;;;;;15.80;1.67;;;2.70;99.90;;;;;;5032061;28;20049;-77
2023/03/07 08:26:52;;;;;;;10.90;1.60;;;2.70;99.90;;;;;;5032572;28;20446;-77
2023/03/07 08:29:17;;;;;;;8.60;1.37;;;2.70;99.90;;;;;;5029655;28;20077;-77
2023/03/07 08:31:44;;;;;;;7.77;1.27;;;2.50;99.90;;;;;;5030864;28;20380;-78
2023/03/07 08:34:11;;;;;;;9.87;1.37;;;2.50;99.90;;;;;;5029658;28;20072;-78
2023/03/07 08:36:38;;;;;;;12.53;1.40;;;2.40;99.90;;;;;;5017991;28;20124;-78
2023/03/07 08:39:04;;;;;;;10.50;1.60;;;2.40;99.90;;;;;;5026891;28;20038;-78
2023/03/07 08:41:30;;;;;;;9.23;1.57;;;2.80;99.90;;;;;;5031373;28;20038;-77
2023/03/07 08:43:55;;;;;;;8.90;1.73;;;2.50;99.90;;;;;;5028609;28;20434;-79
2023/03/07 08:46:22;;;;;;;13.47;1.70;;;2.50;99.90;;;;;;5019477;28;20049;-78
2023/03/07 08:48:48;;;;;;;12.53;1.33;;;2.50;99.90;;;;;;5030018;28;20466;-78
2023/03/07 08:51:16;;;;;;;10.67;1.90;;;2.50;99.90;;;;;;5030664;28;20077;-78
2023/03/07 08:53:43;;;;;;;8.87;1.10;;;2.50;99.90;;;;;;5029929;28;20462;-78
2023/03/07 08:56:10;;;;;;;9.97;1.50;;;2.60;99.90;;;;;;5022528;28;20494;-79
2023/03/07 08:58:36;;;;;;;11.47;1.83;;;2.50;99.90;;;;;;5022697;28;20141;-78
2023/03/07 09:01:04;;;;;;;9.70;1.70;;;2.40;99.90;;;;;;5030425;28;20049;-78
2023/03/07 09:03:29;;;;;;;13.73;1.70;;;2.40;99.90;;;;;;5034582;28;20128;-78
2023/03/07 09:05:55;;;;;;;13.13;1.83;;;2.80;99.90;;;;;;5029115;28;20460;-78
2023/03/07 09:08:21;;;;;;;11.33;1.60;;;2.60;99.90;;;;;;5013779;28;20045;-78
2023/03/07 09:10:47;;;;;;;11.13;1.57;;;2.40;99.90;;;;;;5029773;28;20107;-78
2023/03/07 09:13:13;;;;;;;10.07;1.60;;;2.40;99.90;;;;;;5029897;28;20665;-78
2023/03/07 09:15:40;;;;;;;14.33;1.33;;;2.40;99.90;;;;;;5029752;28;20068;-78
2023/03/07 09:18:06;;;;;;;6.33;1.40;;;2.40;99.90;;;;;;5012094;28;20083;-78
2023/03/07 09:20:32;;;;;;;8.87;1.33;;;2.40;99.90;;;;;;5030054;28;20110;-78
2023/03/07 09:22:58;;;;;;;12.40;1.77;;;2.50;99.90;;;;;;5029891;28;20487;-78
2023/03/07 09:25:24;;;;;;;7.83;1.60;;;2.40;99.90;;;;;;5032916;28;20084;-78
2023/03/07 09:27:52;;;;;;;8.40;1.90;;;2.40;99.90;;;;;;5014092;28;20411;-78
2023/03/07 09:30:18;;;;;;;9.53;1.17;;;2.40;99.90;;;;;;5029641;28;20189;-78
2023/03/07 09:32:43;;;;;;;11.23;1.23;;;2.50;99.90;;;;;;5026543;28;20441;-78
2023/03/07 09:35:09;;;;;;;10.40;1.70;;;2.30;99.90;;;;;;5031879;28;20053;-77
2023/03/07 09:37:35;;;;;;;9.10;1.53;;;2.30;99.90;;;;;;5014165;28;20415;-77
2023/03/07 09:40:07;;;;;;;8.17;1.37;;;2.40;99.90;;;;;;5017508;28;20428;-78
2023/03/07 09:42:58;;;;;;;7.37;1.60;;;2.50;99.90;;;;;;5034459;28;20521;-77
2023/03/07 09:45:45;;;;;;;9.90;1.63;;;2.40;99.90;;;;;;5050305;28;20053;-78
2023/03/07 09:48:33;;;;;;;8.50;1.60;;;2.40;99.90;;;;;;5018924;28;20036;-78
2023/03/07 09:51:34;;;;;;;7.30;1.60;;;2.40;99.90;;;;;;5029225;28;20041;-77
2023/03/07 09:54:08;;;;;;;11.77;1.30;;;2.40;99.90;;;;;;5029221;28;20139;-78
2023/03/07 09:56:49;;;;;;;11.07;1.80;;;2.40;99.90;;;;;;5012285;28;20525;-78
2023/03/07 09:59:21;;;;;;;11.30;1.40;;;2.40;99.90;;;;;;5030297;28;20037;-78
2023/03/07 10:01:51;;;;;;;11.77;1.57;;;2.50;99.90;;;;;;5035817;28;20060;-78
2023/03/07 10:04:25;;;;;;;11.10;1.37;;;2.80;99.90;;;;;;5029638;28;20049;-78
2023/03/07 10:06:56;;;;;;;9.33;1.53;;;2.70;99.90;;;;;;5013080;28;20037;-78
2023/03/07 10:09:23;;;;;;;7.05;1.67;;;3.10;99.90;;;;;;5028821;28;20041;-77
2023/03/07 10:11:54;;;;;;;12.53;1.83;;;2.80;99.90;;;;;;5029693;28;20041;-78
2023/03/07 10:14:44;;;;;;;6.97;1.50;;;3.00;99.90;;;;;;5028357;28;20092;-78
2023/03/07 10:17:25;;;;;;;5.60;1.23;;;3.00;99.90;;;;;;5013429;28;20094;-78
2023/03/07 10:20:11;;;;;;;9.32;1.30;;;3.30;99.90;;;;;;5028142;28;20052;-78
2023/03/07 10:22:52;;;;;;;10.33;1.87;;;3.50;99.90;;;;;;5027172;28;20396;-78
2023/03/07 10:25:38;;;;;;;12.53;1.60;;;3.60;99.90;;;;;;5038909;28;20059;-78
2023/03/07 10:28:24;;;;;;;6.30;1.70;;;4.00;99.90;;;;;;5027239;28;20076;-78
2023/03/07 10:30:53;;;;;;;10.03;1.53;;;4.00;99.90;;;;;;5028753;28;20083;-78
2023/03/07 10:33:19;;;;;;;10.17;1.60;;;4.00;99.90;;;;;;5029099;28;20407;-77
2023/03/07 10:36:05;;;;;;;10.87;1.93;;;3.80;99.90;;;;;;5028511;28;20049;-78
2023/03/07 10:38:36;;;;;;;10.70;1.83;;;3.60;99.90;;;;;;5034076;28;20523;-78
2023/03/07 10:41:05;;;;;;;9.13;1.45;;;3.50;99.90;;;;;;5009969;28;20050;-78
2023/03/07 10:43:33;;;;;;;14.07;1.90;;;3.70;99.90;;;;;;5009585;28;20046;-78
2023/03/07 10:46:10;;;;;;;13.13;2.10;;;3.90;99.90;;;;;;5010218;28;20046;-78
2023/03/07 10:48:39;;;;;;;9.17;2.03;;;4.50;99.90;;;;;;5032429;28;20049;-78
2023/03/07 10:51:23;;;;;;;10.20;1.97;;;5.00;99.90;;;;;;5028588;28;20080;-78
2023/03/07 10:53:49;;;;;;;9.73;1.70;;;5.20;99.90;;;;;;5028691;28;20111;-78
2023/03/07 10:56:17;;;;;;;8.97;2.00;;;6.10;99.90;;;;;;5019083;28;20038;-79
2023/03/07 10:59:08;;;;;;;8.27;2.23;;;6.00;99.90;;;;;;5023978;28;20045;-78
2023/03/07 11:01:35;;;;;;;8.60;1.63;;;5.70;99.90;;;;;;5028482;28;20097;-78
2023/03/07 11:04:19;;;;;;;9.83;2.10;;;5.60;99.90;;;;;;5029382;28;20072;-76
2023/03/07 11:06:56;;;;;;;9.17;1.83;;;5.70;99.90;;;;;;5013749;28;20130;-78
2023/03/07 11:09:24;;;;;;;9.67;2.03;;;6.00;99.90;;;;;;5028588;28;20091;-78
2023/03/07 11:11:55;;;;;;;11.10;1.90;;;5.80;99.90;;;;;;5028808;28;20045;-78
2023/03/07 11:14:22;;;;;;;9.95;1.58;;;5.90;99.90;;;;;;5027677;28;20124;-77
2023/03/07 11:16:52;;;;;;;7.83;1.30;;;5.50;99.90;;;;;;5013104;28;20041;-77
2023/03/07 11:19:31;;;;;;;9.67;1.40;;;5.80;99.90;;;;;;5026897;28;20068;-78
2023/03/07 11:21:59;;;;;;;11.13;1.80;;;5.20;99.90;;;;;;5028849;28;20080;-77
2023/03/07 11:24:29;;;;;;;10.77;1.00;;;4.80;99.90;;;;;;5037513;28;20049;-79
2023/03/07 11:26:58;;;;;;;8.73;1.53;;;4.60;99.90;;;;;;5014263;28;20108;-77
2023/03/07 11:29:27;;;;;;;9.47;1.73;;;4.10;99.90;;;;;;5027663;28;20432;-77
2023/03/07 11:32:10;;;;;;;10.97;1.13;;;3.90;99.90;;;;;;5030543;28;20489;-77
2023/03/07 11:34:56;;;;;;;10.97;1.30;;;3.60;99.90;;;;;;5028082;28;20558;-77
2023/03/07 11:37:31;;;;;;;9.97;1.80;;;3.50;99.90;;;;;;5011262;28;20088;-77
2023/03/07 11:40:23;;;;;;;9.80;1.40;;;3.50;99.90;;;;;;5028400;28;20125;-77
2023/03/07 11:43:11;;;;;;;10.40;1.57;;;3.20;99.90;;;;;;5027189;28;20077;-77
2023/03/07 11:46:06;;;;;;;15.47;2.20;;;3.00;99.90;;;;;;5026670;28;20057;-77
2023/03/07 11:48:41;;;;;;;11.33;1.63;;;4.00;99.90;;;;;;5014366;28;20484;-77
2023/03/07 11:51:35;;;;;;;15.53;1.83;;;4.40;99.90;;;;;;5025818;28;20046;-77
2023/03/07 11:54:27;;;;;;;14.00;1.70;;;5.20;99.90;;;;;;5006099;28;20120;-78
2023/03/07 11:56:59;;;;;;;5.33;1.23;;;6.60;99.90;;;;;;5013269;28;20056;-78
2023/03/07 11:59:34;;;;;;;;;;;6.80;99.90;;;;;;5011147;28;20045;-78
2023/03/07 12:02:04;;;;;;;9.90;1.63;;;8.10;99.90;;;;;;5021400;28;19943;-77
2023/03/07 12:04:56;;;;;;;9.57;1.30;;;7.60;99.90;;;;;;5029945;28;20213;-77
2023/03/07 12:07:50;;;;;;;7.70;0.90;;;7.60;99.90;;;;;;5014061;28;20053;-78
2023/03/07 12:10:48;;;;;;;7.30;1.07;;;7.90;99.90;;;;;;5030884;28;20043;-77
2023/03/07 12:13:30;;;;;;;6.70;0.83;;;8.00;99.90;;;;;;5008235;28;20057;-78
2023/03/07 12:16:33;;;;;;;3.60;0.77;;;7.80;99.90;;;;;;5031538;28;20372;-77
2023/03/07 12:19:24;;;;;;;5.37;0.77;;;8.20;99.90;;;;;;5029401;28;20065;-77
2023/03/07 12:22:08;;;;;;;13.40;0.80;;;8.40;99.90;;;;;;5032168;28;20053;-77
2023/03/07 12:25:00;;;;;;;6.93;0.90;;;9.20;99.90;;;;;;5031376;28;20114;-77
2023/03/07 12:27:41;;;;;;;7.93;1.30;;;9.10;98.70;;;;;;4978965;28;20445;-77
2023/03/07 12:30:19;;;;;;;10.10;1.08;;;8.70;96.70;;;;;;5011352;28;20484;-78
2023/03/07 12:32:45;;;;;;;10.83;1.27;;;7.80;97.70;;;;;;5011024;28;20042;-78
2023/03/07 12:35:22;;;;;;;6.03;0.70;;;6.90;98.50;;;;;;5015900;28;20049;-78
2023/03/07 12:38:10;;;;;;;5.97;1.00;;;6.60;99.90;;;;;;5015538;28;20048;-77
2023/03/07 12:40:46;;;;;;;5.33;0.97;;;7.70;99.90;;;;;;5029206;28;20499;-79
2023/03/07 12:43:46;;;;;;;6.03;0.70;;;8.70;99.60;;;;;;5048115;28;20056;-77
2023/03/07 12:46:18;;;;;;;4.07;0.80;;;9.30;98.00;;;;;;5038269;28;20522;-77
2023/03/07 12:48:59;;;;;;;4.67;0.93;;;9.90;95.70;;;;;;5017095;28;20107;-77
2023/03/07 12:51:29;;;;;;;5.35;0.60;;;8.80;94.60;;;;;;5030915;28;20053;-78
2023/03/07 12:54:05;;;;;;;5.93;0.80;;;8.00;96.00;;;;;;5030381;28;20041;-77
2023/03/07 12:56:42;;;;;;;4.40;0.80;;;7.30;97.80;;;;;;5017973;28;20061;-77
2023/03/07 12:59:13;;;;;;;4.17;0.97;;;6.80;99.90;;;;;;5031223;28;20045;-78
2023/03/07 13:01:51;;;;;;;9.88;1.17;;;7.10;99.90;;;;;;5013485;28;20092;-79
2023/03/07 13:04:35;;;;;;;7.03;1.10;;;6.80;99.90;;;;;;5031180;28;20541;-79